Time;durP1;ratioP1;P1;durP2;ratioP2;P2;SDS_P1;SDS_P2;PMS_P1;PMS_P2;Temp;Humidity;BMP_temperature;BMP_pressure;BME280_temperature;BME280_humidity;BME280_pressure;Samples;Min_cycle;Max_cycle;Signal;HPM_P1;HPM_P2
2021/11/26 00:01:08;;;;;;;37.33;15.77;;;3.40;99.90;;;;;;5067911;28;20209;-70
2021/11/26 00:03:34;;;;;;;34.03;16.40;;;3.40;99.90;;;;;;5069681;28;20195;-70
2021/11/26 00:06:01;;;;;;;36.33;15.87;;;3.40;99.90;;;;;;5068897;28;20203;-70
2021/11/26 00:08:28;;;;;;;38.33;16.20;;;3.20;99.90;;;;;;5068357;28;20202;-70
2021/11/26 00:10:55;;;;;;;32.07;15.20;;;3.20;99.90;;;;;;5072134;28;20653;-70
2021/11/26 00:13:28;;;;;;;34.43;15.33;;;3.30;99.90;;;;;;5075647;28;20209;-70
2021/11/26 00:16:04;;;;;;;33.57;15.23;;;3.30;99.90;;;;;;5071801;28;20222;-70
2021/11/26 00:18:35;;;;;;;30.80;14.67;;;3.20;99.90;;;;;;5071806;28;20299;-70
2021/11/26 00:21:02;;;;;;;39.03;16.30;;;3.20;99.90;;;;;;5073689;28;20563;-69
2021/11/26 00:23:30;;;;;;;36.87;16.40;;;3.50;99.90;;;;;;5075227;28;20206;-70
2021/11/26 00:25:56;;;;;;;37.07;16.67;;;3.60;99.90;;;;;;5077869;28;20281;-70
2021/11/26 00:28:23;;;;;;;35.67;15.30;;;3.70;99.90;;;;;;5070856;28;20210;-69
2021/11/26 00:30:51;;;;;;;36.97;16.30;;;3.70;99.90;;;;;;5068377;28;20208;-69
2021/11/26 00:33:19;;;;;;;38.20;15.67;;;3.70;99.90;;;;;;5069120;28;20832;-69
2021/11/26 00:35:46;;;;;;;31.40;15.30;;;3.70;99.90;;;;;;5068893;28;20218;-70
2021/11/26 00:38:14;;;;;;;39.60;18.17;;;3.70;99.90;;;;;;5067754;28;20190;-70
2021/11/26 00:40:41;;;;;;;36.17;15.17;;;3.70;99.90;;;;;;5070686;28;20216;-70
2021/11/26 00:43:08;;;;;;;33.23;14.77;;;3.70;99.90;;;;;;5067621;28;20229;-70
2021/11/26 00:45:35;;;;;;;36.23;15.30;;;3.80;99.90;;;;;;5071008;28;20224;-70
2021/11/26 00:48:03;;;;;;;37.47;15.43;;;3.90;99.90;;;;;;5068031;28;20566;-70
2021/11/26 00:50:33;;;;;;;36.77;15.30;;;3.70;99.90;;;;;;5069728;28;20206;-69
2021/11/26 00:53:00;;;;;;;30.50;14.23;;;3.70;99.90;;;;;;5076329;28;20274;-69
2021/11/26 00:55:27;;;;;;;35.07;13.80;;;3.70;99.90;;;;;;5073773;28;20237;-70
2021/11/26 00:57:54;;;;;;;32.63;14.77;;;3.60;99.90;;;;;;5073775;28;20195;-70
2021/11/26 01:00:21;;;;;;;31.83;13.13;;;3.70;99.90;;;;;;5067919;28;20217;-70
2021/11/26 01:02:48;;;;;;;33.57;13.83;;;3.80;99.90;;;;;;5069220;28;20198;-70
2021/11/26 01:05:15;;;;;;;28.93;13.33;;;3.90;99.90;;;;;;5068233;28;20206;-70
2021/11/26 01:07:44;;;;;;;36.23;14.43;;;3.90;99.90;;;;;;5072263;28;20198;-70
2021/11/26 01:10:14;;;;;;;34.03;13.50;;;3.90;99.90;;;;;;5074149;28;20564;-70
2021/11/26 01:12:41;;;;;;;32.20;13.23;;;4.10;99.90;;;;;;5066965;28;20683;-69
2021/11/26 01:15:10;;;;;;;36.30;13.17;;;4.10;99.90;;;;;;5067460;28;20576;-70
2021/11/26 01:17:40;;;;;;;33.80;14.07;;;4.20;99.90;;;;;;5069072;28;20194;-70
2021/11/26 01:20:09;;;;;;;37.07;14.97;;;4.20;99.90;;;;;;5069985;28;20636;-69
2021/11/26 01:22:36;;;;;;;39.80;16.03;;;4.20;99.90;;;;;;5071787;28;20194;-70
2021/11/26 01:25:06;;;;;;;36.80;15.97;;;4.30;99.90;;;;;;5072645;28;20198;-70
2021/11/26 01:27:33;;;;;;;33.63;15.47;;;4.30;99.90;;;;;;5070905;28;20244;-69
2021/11/26 01:30:04;;;;;;;36.57;16.73;;;4.30;99.90;;;;;;5071660;28;20245;-70
2021/11/26 01:32:31;;;;;;;35.40;14.73;;;4.30;99.90;;;;;;5070491;28;20212;-70
2021/11/26 01:34:58;;;;;;;39.63;15.37;;;4.30;99.90;;;;;;5071519;28;20225;-70
2021/11/26 01:37:25;;;;;;;38.37;15.50;;;4.40;99.90;;;;;;5071624;28;20685;-70
2021/11/26 01:39:52;;;;;;;36.80;15.73;;;4.40;99.90;;;;;;5068608;28;20202;-70
2021/11/26 01:42:20;;;;;;;32.20;14.20;;;4.40;99.90;;;;;;5069545;28;20386;-70
2021/11/26 01:44:47;;;;;;;37.37;15.60;;;4.40;99.90;;;;;;5069112;28;20201;-70
2021/11/26 01:47:15;;;;;;;37.10;17.00;;;4.40;99.90;;;;;;5068150;28;20647;-69
2021/11/26 01:49:42;;;;;;;32.13;14.00;;;4.40;99.90;;;;;;5070136;28;20209;-70
2021/11/26 01:52:09;;;;;;;35.80;15.03;;;4.50;99.90;;;;;;5069155;28;20197;-69
2021/11/26 01:54:36;;;;;;;35.80;13.80;;;4.50;99.90;;;;;;5070654;28;20202;-73
2021/11/26 01:57:03;;;;;;;35.63;14.50;;;4.50;99.90;;;;;;5071292;28;20666;-73
2021/11/26 01:59:31;;;;;;;35.67;14.60;;;4.60;99.90;;;;;;5070023;28;20209;-73
2021/11/26 02:01:58;;;;;;;39.77;16.23;;;4.60;99.90;;;;;;5066459;28;20220;-73
2021/11/26 02:04:25;;;;;;;43.87;15.80;;;4.60;99.90;;;;;;5076368;28;20220;-73
2021/11/26 02:06:52;;;;;;;35.30;13.47;;;4.60;99.90;;;;;;5081611;28;20190;-73
2021/11/26 02:09:19;;;;;;;36.27;15.40;;;4.70;99.90;;;;;;5074485;28;20205;-73
2021/11/26 02:11:46;;;;;;;35.13;14.87;;;4.70;99.90;;;;;;5074580;28;20217;-73
2021/11/26 02:14:14;;;;;;;35.97;16.07;;;4.70;99.90;;;;;;5074733;28;20660;-73
2021/11/26 02:16:44;;;;;;;37.47;15.97;;;4.70;99.90;;;;;;5074675;28;20755;-73
2021/11/26 02:19:12;;;;;;;38.73;15.87;;;4.70;99.90;;;;;;5070256;28;20206;-73
2021/11/26 02:21:41;;;;;;;37.27;14.33;;;4.70;99.90;;;;;;5068369;28;20202;-73
2021/11/26 02:24:09;;;;;;;37.20;15.00;;;4.70;99.90;;;;;;5071477;28;20198;-73
2021/11/26 02:26:36;;;;;;;40.63;14.97;;;4.70;99.90;;;;;;5075047;28;20201;-73
2021/11/26 02:29:04;;;;;;;40.70;17.70;;;4.70;99.90;;;;;;5062736;28;20657;-73
2021/11/26 02:31:31;;;;;;;37.97;15.37;;;4.80;99.90;;;;;;5074756;28;20205;-73
2021/11/26 02:33:58;;;;;;;37.23;16.17;;;4.80;99.90;;;;;;5072660;28;20212;-73
2021/11/26 02:36:25;;;;;;;37.47;16.97;;;4.70;99.90;;;;;;5070034;28;20316;-73
2021/11/26 02:38:53;;;;;;;38.57;15.97;;;4.70;99.90;;;;;;5068489;28;20198;-73
2021/11/26 02:41:20;;;;;;;34.13;15.47;;;4.70;99.90;;;;;;5071720;28;20675;-73
2021/11/26 02:43:47;;;;;;;36.20;14.73;;;4.70;99.90;;;;;;5066260;28;20202;-73
2021/11/26 02:46:14;;;;;;;37.57;16.37;;;4.60;99.90;;;;;;5066645;28;20686;-73
2021/11/26 02:48:41;;;;;;;38.47;15.10;;;4.50;99.90;;;;;;5070647;28;20653;-73
2021/11/26 02:51:08;;;;;;;41.10;17.30;;;4.40;99.90;;;;;;5073576;28;20201;-73
2021/11/26 02:53:35;;;;;;;42.17;18.17;;;4.40;99.90;;;;;;5075014;28;20206;-73
2021/11/26 02:56:04;;;;;;;45.60;17.20;;;4.40;99.90;;;;;;5073381;28;20217;-73
2021/11/26 02:58:31;;;;;;;42.17;18.33;;;4.40;99.90;;;;;;5077398;28;20228;-73
2021/11/26 03:01:00;;;;;;;43.00;17.27;;;4.30;99.90;;;;;;5073568;28;20668;-73
2021/11/26 03:03:27;;;;;;;39.77;17.07;;;4.30;99.90;;;;;;5072458;28;20207;-73
2021/11/26 03:05:59;;;;;;;43.50;17.97;;;4.30;99.90;;;;;;5072438;28;20210;-73
2021/11/26 03:08:26;;;;;;;42.40;15.90;;;4.20;99.90;;;;;;5071909;28;20202;-73
2021/11/26 03:10:53;;;;;;;38.13;17.00;;;4.20;99.90;;;;;;5067772;28;20301;-73
2021/11/26 03:13:21;;;;;;;41.43;15.60;;;4.20;99.90;;;;;;5072298;28;20569;-73
2021/11/26 03:15:48;;;;;;;38.13;15.17;;;4.20;99.90;;;;;;5074192;28;20202;-73
2021/11/26 03:18:17;;;;;;;35.63;14.93;;;4.30;99.90;;;;;;5073444;28;20194;-73
2021/11/26 03:20:44;;;;;;;35.77;14.77;;;4.20;99.90;;;;;;5074184;28;20293;-73
2021/11/26 03:23:12;;;;;;;47.17;17.53;;;4.40;99.90;;;;;;5074920;28;20218;-73
2021/11/26 03:25:41;;;;;;;39.47;17.00;;;4.30;99.90;;;;;;5073497;28;20202;-73
2021/11/26 03:28:08;;;;;;;41.10;15.37;;;4.20;99.90;;;;;;5073943;28;20319;-73
2021/11/26 03:30:37;;;;;;;38.83;14.83;;;4.20;99.90;;;;;;5073297;28;20209;-73
2021/11/26 03:33:04;;;;;;;36.83;14.30;;;4.20;99.90;;;;;;5073434;28;20575;-73
2021/11/26 03:35:32;;;;;;;33.13;14.80;;;4.30;99.90;;;;;;5071502;28;20241;-73
2021/11/26 03:38:00;;;;;;;37.97;15.53;;;4.30;99.90;;;;;;5071950;28;20224;-73
2021/11/26 03:40:29;;;;;;;42.10;16.03;;;4.40;99.90;;;;;;5069220;28;20213;-73
2021/11/26 03:42:57;;;;;;;40.13;15.10;;;4.40;99.90;;;;;;5069672;28;20206;-73
2021/11/26 03:45:27;;;;;;;45.60;16.80;;;4.40;99.90;;;;;;5070577;28;20294;-73
2021/11/26 03:47:55;;;;;;;40.23;14.63;;;4.40;99.90;;;;;;5072625;28;20359;-73
2021/11/26 03:50:23;;;;;;;44.77;17.07;;;4.40;99.90;;;;;;5070406;28;20202;-73
2021/11/26 03:52:50;;;;;;;39.80;14.60;;;4.30;99.90;;;;;;5071633;28;20210;-73
2021/11/26 03:55:20;;;;;;;41.43;17.33;;;4.30;99.90;;;;;;5072273;28;20200;-73
2021/11/26 03:57:47;;;;;;;39.97;14.97;;;4.20;99.90;;;;;;5071829;28;20214;-73
2021/11/26 04:00:15;;;;;;;41.43;15.57;;;4.20;99.90;;;;;;5067586;28;20202;-73
2021/11/26 04:02:43;;;;;;;38.00;15.40;;;4.30;99.90;;;;;;5071530;28;20205;-73
2021/11/26 04:05:12;;;;;;;42.93;15.23;;;4.30;99.90;;;;;;5071690;28;20683;-73
2021/11/26 04:07:39;;;;;;;38.53;14.37;;;4.30;99.90;;;;;;5064596;28;20198;-73
2021/11/26 04:10:08;;;;;;;36.13;13.87;;;4.30;99.90;;;;;;5069877;28;20225;-74
2021/11/26 04:12:35;;;;;;;43.03;16.40;;;4.20;99.90;;;;;;5071627;28;20201;-73
2021/11/26 04:15:05;;;;;;;36.23;14.03;;;4.20;99.90;;;;;;5067837;28;20637;-73
2021/11/26 04:17:32;;;;;;;41.97;14.70;;;4.20;99.90;;;;;;5070088;28;20229;-73
2021/11/26 04:19:59;;;;;;;37.00;15.17;;;4.20;99.90;;;;;;5070860;28;20217;-73
2021/11/26 04:22:27;;;;;;;35.07;14.63;;;4.10;99.90;;;;;;5072881;28;20206;-73
2021/11/26 04:24:54;;;;;;;39.30;15.43;;;4.10;99.90;;;;;;5072411;28;20202;-73
2021/11/26 04:27:21;;;;;;;37.90;14.10;;;4.10;99.90;;;;;;5071556;28;20203;-73
2021/11/26 04:29:48;;;;;;;35.97;14.03;;;4.10;99.90;;;;;;5073437;28;20297;-73
2021/11/26 04:32:16;;;;;;;37.60;14.27;;;4.10;99.90;;;;;;5070078;28;20206;-73
2021/11/26 04:34:43;;;;;;;40.00;14.83;;;4.10;99.90;;;;;;5068208;28;20567;-74
2021/11/26 04:37:10;;;;;;;32.50;13.63;;;4.10;99.90;;;;;;5070305;28;20222;-73
2021/11/26 04:39:38;;;;;;;32.10;12.90;;;4.10;99.90;;;;;;5071458;28;20225;-74
2021/11/26 04:42:05;;;;;;;38.57;13.77;;;4.20;99.90;;;;;;5069435;28;20210;-73
2021/11/26 04:44:32;;;;;;;36.37;13.73;;;4.20;99.90;;;;;;5066163;28;20209;-74
2021/11/26 04:46:59;;;;;;;32.60;11.73;;;4.30;99.90;;;;;;5071172;28;20640;-74
2021/11/26 04:49:26;;;;;;;37.53;13.37;;;4.40;99.90;;;;;;5071083;28;20198;-73
2021/11/26 04:51:53;;;;;;;35.83;13.37;;;4.40;99.90;;;;;;5063956;28;20210;-73
2021/11/26 04:54:20;;;;;;;34.03;14.30;;;4.50;99.90;;;;;;5069716;28;20571;-73
2021/11/26 04:56:48;;;;;;;29.13;13.47;;;4.50;99.90;;;;;;5071952;28;20221;-73
2021/11/26 04:59:15;;;;;;;31.77;13.83;;;4.60;99.90;;;;;;5072154;28;20199;-73
2021/11/26 05:01:42;;;;;;;35.60;16.07;;;4.60;99.90;;;;;;5070759;28;20202;-73
2021/11/26 05:04:09;;;;;;;31.73;13.77;;;4.60;99.90;;;;;;5072012;28;20198;-73
2021/11/26 05:06:36;;;;;;;37.83;15.23;;;4.60;99.90;;;;;;5073137;28;20645;-73
2021/11/26 05:09:06;;;;;;;34.37;13.80;;;4.50;99.90;;;;;;5071027;28;20637;-73
2021/11/26 05:11:32;;;;;;;37.07;15.10;;;4.50;99.90;;;;;;5071476;28;20555;-73
2021/11/26 05:14:02;;;;;;;36.43;15.83;;;4.60;99.90;;;;;;5072368;28;20208;-73
2021/11/26 05:16:29;;;;;;;32.03;14.37;;;4.60;99.90;;;;;;5070793;28;20246;-73
2021/11/26 05:18:56;;;;;;;30.63;13.73;;;4.60;99.90;;;;;;5072463;28;20298;-73
2021/11/26 05:21:23;;;;;;;32.27;13.27;;;4.50;99.90;;;;;;5070618;28;20285;-73
2021/11/26 05:23:50;;;;;;;30.83;13.30;;;4.40;99.90;;;;;;5070003;28;20201;-73
2021/11/26 05:26:17;;;;;;;28.23;11.60;;;4.30;99.90;;;;;;5070743;28;20205;-73
2021/11/26 05:28:44;;;;;;;28.27;11.60;;;4.30;99.90;;;;;;5070688;28;20564;-73
2021/11/26 05:31:12;;;;;;;30.57;11.87;;;4.30;99.90;;;;;;5072204;28;20205;-73
2021/11/26 05:33:39;;;;;;;25.73;10.13;;;4.20;99.90;;;;;;5069201;28;20202;-74
2021/11/26 05:36:06;;;;;;;25.27;10.27;;;4.20;99.90;;;;;;5067475;28;20204;-74
2021/11/26 05:38:33;;;;;;;30.10;11.70;;;4.10;99.90;;;;;;5068800;28;21155;-74
2021/11/26 05:41:00;;;;;;;34.70;11.60;;;4.20;99.90;;;;;;5057218;28;20305;-74
2021/11/26 05:43:27;;;;;;;24.47;10.33;;;4.20;99.90;;;;;;5072115;28;20292;-73
2021/11/26 05:45:54;;;;;;;28.67;12.17;;;4.20;99.90;;;;;;5071582;28;20672;-73
2021/11/26 05:48:22;;;;;;;27.60;11.50;;;4.20;99.90;;;;;;5071504;28;20289;-73
2021/11/26 05:50:49;;;;;;;29.57;11.17;;;4.30;99.90;;;;;;5071562;28;20218;-73
2021/11/26 05:53:16;;;;;;;29.50;11.90;;;4.30;99.90;;;;;;5068805;28;20199;-73
2021/11/26 05:55:42;;;;;;;27.23;10.70;;;4.20;99.90;;;;;;5067504;28;20667;-73
2021/11/26 05:58:09;;;;;;;24.73;10.93;;;4.20;99.90;;;;;;5071245;28;20767;-73
2021/11/26 06:00:37;;;;;;;29.67;10.97;;;4.30;99.90;;;;;;5071304;28;20205;-73
2021/11/26 06:03:04;;;;;;;30.07;10.90;;;4.30;99.90;;;;;;5071509;28;20214;-73
2021/11/26 06:05:33;;;;;;;28.90;10.73;;;4.30;99.90;;;;;;5069536;28;20386;-73
2021/11/26 06:08:00;;;;;;;33.50;9.87;;;4.40;99.90;;;;;;5067552;28;20202;-73
2021/11/26 06:10:27;;;;;;;28.10;10.20;;;4.40;99.90;;;;;;5067662;28;20212;-73
2021/11/26 06:12:54;;;;;;;25.97;10.27;;;4.40;99.90;;;;;;5070348;28;20312;-73
2021/11/26 06:15:23;;;;;;;28.37;11.13;;;4.50;99.90;;;;;;5065738;28;20676;-73
2021/11/26 06:17:50;;;;;;;24.70;10.33;;;4.50;99.90;;;;;;5065234;28;20541;-73
2021/11/26 06:20:17;;;;;;;26.60;10.63;;;4.50;99.90;;;;;;5060976;28;20323;-73
2021/11/26 06:22:46;;;;;;;25.80;10.10;;;4.60;99.90;;;;;;5070607;28;20217;-73
2021/11/26 06:25:15;;;;;;;25.67;11.23;;;4.50;99.90;;;;;;5069270;28;20202;-73
2021/11/26 06:27:43;;;;;;;31.77;11.17;;;4.60;99.90;;;;;;5070213;28;20664;-73
2021/11/26 06:30:12;;;;;;;28.73;10.93;;;4.60;99.90;;;;;;5070991;28;20209;-73
2021/11/26 06:32:39;;;;;;;26.67;10.93;;;4.60;99.90;;;;;;5070698;28;20212;-73
2021/11/26 06:35:07;;;;;;;25.90;11.03;;;4.70;99.90;;;;;;5071537;28;20614;-73
2021/11/26 06:37:34;;;;;;;29.37;11.77;;;4.60;99.90;;;;;;5069862;28;20220;-73
2021/11/26 06:40:05;;;;;;;27.07;10.37;;;4.70;99.90;;;;;;5070664;28;20209;-73
2021/11/26 06:42:31;;;;;;;26.47;10.40;;;4.70;99.90;;;;;;5070851;28;20217;-73
2021/11/26 06:44:58;;;;;;;24.33;10.53;;;4.60;99.90;;;;;;5071633;28;20195;-73
2021/11/26 06:47:25;;;;;;;26.80;11.17;;;4.70;99.90;;;;;;5070421;28;20195;-73
2021/11/26 06:49:52;;;;;;;25.77;10.17;;;4.70;99.90;;;;;;5073988;28;20569;-73
2021/11/26 06:52:19;;;;;;;21.73;10.43;;;4.70;99.90;;;;;;5071946;28;20656;-73
2021/11/26 06:54:47;;;;;;;25.53;10.13;;;4.80;99.90;;;;;;5074384;28;20596;-73
2021/11/26 06:57:15;;;;;;;23.50;10.00;;;4.80;99.90;;;;;;5073960;28;20205;-73
2021/11/26 06:59:42;;;;;;;22.00;9.67;;;4.80;99.90;;;;;;5074689;28;20213;-76
2021/11/26 07:02:10;;;;;;;23.83;9.30;;;4.80;99.90;;;;;;5072421;28;20209;-77
2021/11/26 07:04:40;;;;;;;23.23;10.50;;;4.80;99.90;;;;;;5070209;28;20213;-77
2021/11/26 07:07:07;;;;;;;23.30;9.13;;;4.80;99.90;;;;;;5071361;28;20207;-77
2021/11/26 07:09:34;;;;;;;21.83;8.40;;;4.80;99.90;;;;;;5073676;28;20198;-77
2021/11/26 07:12:01;;;;;;;25.80;10.03;;;4.80;99.90;;;;;;5074106;28;20206;-77
2021/11/26 07:14:29;;;;;;;23.37;8.63;;;4.90;99.90;;;;;;5074845;28;20206;-77
2021/11/26 07:16:56;;;;;;;22.60;9.50;;;4.90;99.90;;;;;;5073775;28;20206;-76
2021/11/26 07:19:22;;;;;;;22.97;9.23;;;4.90;99.90;;;;;;5074375;28;20699;-77
2021/11/26 07:21:49;;;;;;;22.07;8.70;;;5.00;99.90;;;;;;5069647;28;20217;-76
2021/11/26 07:24:16;;;;;;;21.83;8.27;;;5.00;99.90;;;;;;5070258;28;20289;-76
2021/11/26 07:26:43;;;;;;;24.13;8.50;;;5.00;99.90;;;;;;5073510;28;20286;-77
2021/11/26 07:29:10;;;;;;;17.87;7.10;;;5.00;99.90;;;;;;5074233;28;20198;-77
2021/11/26 07:31:38;;;;;;;23.00;8.50;;;5.00;99.90;;;;;;5071501;28;20310;-77
2021/11/26 07:34:05;;;;;;;22.23;9.10;;;5.00;99.90;;;;;;5072105;28;20289;-77
2021/11/26 07:36:32;;;;;;;21.83;8.57;;;5.10;99.90;;;;;;5066503;28;20533;-77
2021/11/26 07:38:58;;;;;;;18.13;6.90;;;5.10;99.90;;;;;;5074003;28;20217;-77
2021/11/26 07:41:25;;;;;;;18.87;7.57;;;5.10;99.90;;;;;;5072102;28;20202;-77
2021/11/26 07:43:52;;;;;;;18.93;7.13;;;5.10;99.90;;;;;;5071722;28;20298;-77
2021/11/26 07:46:19;;;;;;;18.73;8.00;;;5.20;99.90;;;;;;5070260;28;20206;-77
2021/11/26 07:48:47;;;;;;;20.30;7.97;;;5.20;99.90;;;;;;5075946;28;20301;-77
2021/11/26 07:51:14;;;;;;;16.33;7.80;;;5.20;99.90;;;;;;5073810;28;20203;-77
2021/11/26 07:53:41;;;;;;;18.67;7.33;;;5.20;99.90;;;;;;5073500;28;20195;-77
2021/11/26 07:56:08;;;;;;;22.40;7.53;;;5.20;99.90;;;;;;5073835;28;20652;-77
2021/11/26 07:58:35;;;;;;;19.80;6.47;;;5.20;99.90;;;;;;5073334;28;20229;-76
2021/11/26 08:01:02;;;;;;;19.87;6.77;;;5.20;99.90;;;;;;5067830;28;20563;-77
2021/11/26 08:03:29;;;;;;;21.83;7.87;;;5.20;99.90;;;;;;5070187;28;20292;-77
2021/11/26 08:05:57;;;;;;;23.53;7.20;;;5.20;99.90;;;;;;5073447;28;20300;-77
2021/11/26 08:08:24;;;;;;;22.67;7.73;;;5.20;99.90;;;;;;5071855;28;20211;-77
2021/11/26 08:10:51;;;;;;;16.87;6.97;;;5.20;99.90;;;;;;5073016;28;20206;-77
2021/11/26 08:13:17;;;;;;;17.33;7.07;;;5.20;99.90;;;;;;5073740;28;20209;-77
2021/11/26 08:15:44;;;;;;;19.23;7.03;;;5.20;99.90;;;;;;5070895;28;20210;-77
2021/11/26 08:18:13;;;;;;;24.43;8.13;;;5.20;99.90;;;;;;5065815;28;20226;-77
2021/11/26 08:20:40;;;;;;;17.77;6.83;;;5.20;99.90;;;;;;5067167;28;20202;-77
2021/11/26 08:23:09;;;;;;;17.87;6.87;;;5.20;99.90;;;;;;5068669;28;20210;-77
2021/11/26 08:25:37;;;;;;;19.13;6.83;;;5.30;99.90;;;;;;5067915;28;20198;-77
2021/11/26 08:28:04;;;;;;;19.13;7.77;;;5.30;99.90;;;;;;5072567;28;20700;-77
2021/11/26 08:30:32;;;;;;;18.83;7.33;;;5.30;99.90;;;;;;5072543;28;20554;-77
2021/11/26 08:32:59;;;;;;;19.80;7.40;;;5.30;99.90;;;;;;5068295;28;20201;-77
2021/11/26 08:35:26;;;;;;;18.80;7.33;;;5.30;99.90;;;;;;5069451;28;20244;-77
2021/11/26 08:37:54;;;;;;;17.13;6.93;;;5.30;99.90;;;;;;5066975;28;20229;-77
2021/11/26 08:40:22;;;;;;;18.20;7.53;;;5.40;99.90;;;;;;5065977;28;20209;-76
2021/11/26 08:42:49;;;;;;;21.03;7.77;;;5.40;99.90;;;;;;5068351;28;20195;-77
2021/11/26 08:45:19;;;;;;;16.30;6.93;;;5.50;99.90;;;;;;5068931;28;20199;-77
2021/11/26 08:47:46;;;;;;;17.13;7.13;;;5.50;99.90;;;;;;5067039;28;20205;-77
2021/11/26 08:50:16;;;;;;;21.53;7.67;;;5.50;99.90;;;;;;5065732;28;20208;-77
2021/11/26 08:52:44;;;;;;;24.03;7.87;;;5.50;99.90;;;;;;5067950;28;20202;-77
2021/11/26 08:55:14;;;;;;;15.33;6.53;;;5.60;99.90;;;;;;5069544;28;20202;-77
2021/11/26 08:57:48;;;;;;;19.73;8.10;;;5.60;99.90;;;;;;5071558;28;20703;-77
2021/11/26 09:00:17;;;;;;;16.57;7.30;;;5.50;99.90;;;;;;5072137;28;20300;-77
2021/11/26 09:02:44;;;;;;;21.13;8.07;;;5.50;99.90;;;;;;5071749;28;20209;-77
2021/11/26 09:05:11;;;;;;;16.33;7.10;;;5.60;99.90;;;;;;5082117;28;20690;-76
2021/11/26 09:07:37;;;;;;;16.37;7.17;;;5.50;99.90;;;;;;5072917;28;20210;-77
2021/11/26 09:10:05;;;;;;;19.40;7.67;;;5.50;99.90;;;;;;5066484;28;20195;-77
2021/11/26 09:12:32;;;;;;;15.40;6.60;;;5.50;99.90;;;;;;5068880;28;20656;-77
2021/11/26 09:15:00;;;;;;;16.20;6.70;;;5.40;99.90;;;;;;5069703;28;20210;-77
2021/11/26 09:17:27;;;;;;;19.33;7.97;;;5.50;99.90;;;;;;5071812;28;20217;-77
2021/11/26 09:19:54;;;;;;;21.00;7.33;;;5.40;99.90;;;;;;5071618;28;20584;-77
2021/11/26 09:22:21;;;;;;;16.43;7.33;;;5.40;99.90;;;;;;5072318;28;20214;-77
2021/11/26 09:24:48;;;;;;;18.17;7.10;;;5.40;99.90;;;;;;5071883;28;20209;-77
2021/11/26 09:27:14;;;;;;;19.23;8.10;;;5.30;99.90;;;;;;5071239;28;20206;-77
2021/11/26 09:29:45;;;;;;;16.07;7.43;;;5.30;99.90;;;;;;5072210;28;20641;-77
2021/11/26 09:32:13;;;;;;;18.73;8.00;;;5.20;99.90;;;;;;5071860;28;20210;-77
2021/11/26 09:34:40;;;;;;;21.90;8.53;;;5.20;99.90;;;;;;5072011;28;20213;-77
2021/11/26 09:37:07;;;;;;;21.10;8.07;;;5.30;99.90;;;;;;5072312;28;20225;-77
2021/11/26 09:39:34;;;;;;;22.10;8.00;;;5.30;99.90;;;;;;5071765;28;20755;-77
2021/11/26 09:42:01;;;;;;;17.40;8.30;;;5.30;99.90;;;;;;5071506;28;20206;-77
2021/11/26 09:44:33;;;;;;;18.47;7.63;;;5.30;99.90;;;;;;5072299;28;20206;-76
2021/11/26 09:46:59;;;;;;;18.67;8.90;;;5.30;99.90;;;;;;5071860;28;20269;-77
2021/11/26 09:49:28;;;;;;;23.17;8.80;;;5.20;99.90;;;;;;5071972;28;20202;-76
2021/11/26 09:51:55;;;;;;;17.73;7.70;;;5.30;99.90;;;;;;5071323;28;20293;-77
2021/11/26 09:54:22;;;;;;;21.00;8.50;;;5.20;99.90;;;;;;5071957;28;20203;-77
2021/11/26 09:56:49;;;;;;;19.77;8.03;;;5.20;99.90;;;;;;5071327;28;20567;-77
2021/11/26 09:59:16;;;;;;;19.40;7.83;;;5.20;99.90;;;;;;5077647;28;20225;-77
2021/11/26 10:01:43;;;;;;;21.80;9.80;;;5.20;99.90;;;;;;5071810;28;20690;-77
2021/11/26 10:04:18;;;;;;;21.63;9.17;;;5.20;99.90;;;;;;5071837;28;20237;-77
2021/11/26 10:06:46;;;;;;;20.90;8.77;;;5.20;99.90;;;;;;5071866;28;20686;-77
2021/11/26 10:09:15;;;;;;;23.23;9.17;;;5.20;99.90;;;;;;5070819;28;20187;-77
2021/11/26 10:11:46;;;;;;;20.77;8.50;;;5.20;99.90;;;;;;5074634;28;20193;-77
2021/11/26 10:14:20;;;;;;;22.03;8.50;;;5.10;99.90;;;;;;5083576;28;20194;-77
2021/11/26 10:16:49;;;;;;;17.20;8.30;;;5.10;99.90;;;;;;5086044;28;20210;-78
2021/11/26 10:19:16;;;;;;;20.30;8.60;;;5.20;99.90;;;;;;5071709;28;20222;-77
2021/11/26 10:21:44;;;;;;;22.03;8.80;;;5.10;99.90;;;;;;5071312;28;20635;-77
2021/11/26 10:24:19;;;;;;;17.40;7.67;;;5.10;99.90;;;;;;5073353;28;20216;-77
2021/11/26 10:26:55;;;;;;;18.17;8.80;;;5.10;99.90;;;;;;5074230;28;20202;-73
2021/11/26 10:29:33;;;;;;;19.83;8.60;;;5.10;99.90;;;;;;5074822;28;20698;-73
2021/11/26 10:32:05;;;;;;;21.23;8.63;;;5.10;99.90;;;;;;5075271;28;20206;-73
2021/11/26 10:34:32;;;;;;;20.03;9.37;;;5.10;99.90;;;;;;5074985;28;20572;-73
2021/11/26 10:37:00;;;;;;;17.60;8.43;;;5.10;99.90;;;;;;5075533;28;20569;-73
2021/11/26 10:39:28;;;;;;;23.00;9.17;;;5.10;99.90;;;;;;5075514;28;20214;-73
2021/11/26 10:41:59;;;;;;;22.33;9.37;;;5.10;99.90;;;;;;5066501;28;20207;-73
2021/11/26 10:44:37;;;;;;;21.57;8.73;;;5.10;99.90;;;;;;5060764;28;20199;-73
2021/11/26 10:47:10;;;;;;;18.63;8.57;;;5.10;99.90;;;;;;5073413;28;20645;-72
2021/11/26 10:49:43;;;;;;;17.63;8.03;;;5.10;99.90;;;;;;5071721;28;20616;-73
2021/11/26 10:52:50;;;;;;;20.33;9.07;;;5.10;99.90;;;;;;5078866;28;20198;-73
2021/11/26 10:58:15;;;;;;;19.13;9.03;;;5.10;99.90;;;;;;5078804;28;20617;-72
2021/11/26 11:00:42;;;;;;;19.37;8.93;;;4.90;99.90;;;;;;5079016;28;20197;-72
2021/11/26 11:03:09;;;;;;;21.47;9.10;;;4.90;99.90;;;;;;5079725;28;20208;-73
2021/11/26 11:05:38;;;;;;;18.53;9.63;;;5.00;99.90;;;;;;5078445;28;20209;-74
2021/11/26 11:08:17;;;;;;;20.53;8.57;;;5.00;99.90;;;;;;5075910;28;20296;-73
2021/11/26 11:10:46;;;;;;;20.57;9.53;;;5.00;99.90;;;;;;5079397;28;20215;-73
2021/11/26 11:13:15;;;;;;;21.87;9.97;;;4.90;99.90;;;;;;5081600;28;20648;-73
2021/11/26 11:15:43;;;;;;;19.30;8.83;;;5.00;99.90;;;;;;5073632;28;20212;-73
2021/11/26 11:18:12;;;;;;;18.50;8.10;;;5.00;99.90;;;;;;5076948;28;20201;-73
2021/11/26 11:20:40;;;;;;;16.27;8.80;;;5.00;99.90;;;;;;5076517;28;20627;-73
2021/11/26 11:23:07;;;;;;;19.83;9.10;;;5.00;99.90;;;;;;5079371;28;20688;-72
2021/11/26 11:25:35;;;;;;;19.93;9.60;;;5.00;99.90;;;;;;5077742;28;20198;-72
2021/11/26 11:28:05;;;;;;;17.17;8.13;;;5.00;99.90;;;;;;5082748;28;20198;-72
2021/11/26 11:30:33;;;;;;;17.90;8.70;;;5.00;99.90;;;;;;5075068;28;20202;-73
2021/11/26 11:33:01;;;;;;;17.83;8.30;;;4.90;99.90;;;;;;5074290;28;20206;-73
2021/11/26 11:35:31;;;;;;;19.63;9.27;;;5.00;99.90;;;;;;5074246;28;20213;-73
2021/11/26 11:38:00;;;;;;;17.77;8.37;;;5.00;99.90;;;;;;5060625;28;20294;-72
2021/11/26 11:40:33;;;;;;;17.17;8.87;;;4.90;99.90;;;;;;5052485;28;20329;-72
2021/11/26 11:43:09;;;;;;;17.07;8.43;;;4.90;99.90;;;;;;5068989;28;20206;-73
2021/11/26 11:45:38;;;;;;;16.03;7.80;;;4.90;99.90;;;;;;5074175;28;20201;-74
2021/11/26 11:48:06;;;;;;;15.67;8.60;;;4.90;99.90;;;;;;5073860;28;20563;-72
2021/11/26 11:50:42;;;;;;;17.33;7.60;;;4.90;99.90;;;;;;5073754;28;20210;-72
2021/11/26 11:53:20;;;;;;;16.43;7.80;;;4.80;99.90;;;;;;5073748;28;20212;-72
2021/11/26 11:55:47;;;;;;;18.13;8.07;;;4.80;99.90;;;;;;5073777;28;20641;-72
2021/11/26 11:58:19;;;;;;;15.37;9.23;;;4.90;99.90;;;;;;5073911;28;20210;-72
2021/11/26 12:00:49;;;;;;;15.87;8.07;;;4.90;99.90;;;;;;5073352;28;20275;-72
2021/11/26 12:03:18;;;;;;;15.20;8.50;;;5.00;99.90;;;;;;5073454;28;20202;-72
2021/11/26 12:05:56;;;;;;;14.47;7.67;;;4.90;99.90;;;;;;5073692;28;20221;-72
2021/11/26 12:08:23;;;;;;;14.80;7.90;;;4.90;99.90;;;;;;5073356;28;20228;-72
2021/11/26 12:10:53;;;;;;;15.27;7.13;;;5.00;99.90;;;;;;5072643;28;20202;-73
2021/11/26 12:13:28;;;;;;;13.93;7.70;;;5.00;99.90;;;;;;5073554;28;20225;-72
2021/11/26 12:16:07;;;;;;;13.77;7.10;;;4.90;99.90;;;;;;5072817;28;20202;-73
2021/11/26 12:18:43;;;;;;;12.57;6.87;;;4.90;99.90;;;;;;5073667;28;20221;-73
2021/11/26 12:21:11;;;;;;;13.70;7.07;;;5.00;99.90;;;;;;5073643;28;20319;-73
2021/11/26 12:23:50;;;;;;;11.60;6.37;;;5.00;99.90;;;;;;5073371;28;20242;-72
2021/11/26 12:26:22;;;;;;;11.97;7.00;;;5.00;99.90;;;;;;5073299;28;20202;-73
2021/11/26 12:28:54;;;;;;;11.27;6.80;;;5.00;99.90;;;;;;5073142;28;20609;-72
2021/11/26 12:31:22;;;;;;;11.50;6.23;;;5.10;99.90;;;;;;5072446;28;20217;-73
2021/11/26 12:34:01;;;;;;;11.50;6.70;;;5.10;99.90;;;;;;5072976;28;20413;-73
2021/11/26 12:36:38;;;;;;;12.27;6.60;;;5.10;99.90;;;;;;5072856;28;20206;-73
2021/11/26 12:39:08;;;;;;;11.30;6.33;;;5.20;99.90;;;;;;5072512;28;20217;-73
2021/11/26 12:41:38;;;;;;;10.37;6.10;;;5.10;99.90;;;;;;5072962;28;20674;-73
2021/11/26 12:44:08;;;;;;;10.83;6.23;;;5.10;99.90;;;;;;5072164;28;20245;-73
2021/11/26 12:46:37;;;;;;;10.80;6.10;;;5.10;99.90;;;;;;5072559;28;20202;-73
2021/11/26 12:49:27;;;;;;;9.80;5.70;;;5.10;99.90;;;;;;5073024;28;20206;-73